Time;durP1;ratioP1;P1;durP2;ratioP2;P2;SDS_P1;SDS_P2;PMS_P1;PMS_P2;Temp;Humidity;BMP_temperature;BMP_pressure;BME280_temperature;BME280_humidity;BME280_pressure;Samples;Min_cycle;Max_cycle;Signal;HPM_P1;HPM_P2
2022/01/22 00:00:45;;;;;;;21.30;3.30;;;6.60;99.90;;;;;;5087343;28;20051;-78
2022/01/22 00:03:10;;;;;;;13.50;2.83;;;6.50;99.90;;;;;;5087750;28;20048;-76
2022/01/22 00:05:36;;;;;;;21.80;4.85;;;6.60;99.90;;;;;;5087722;28;20143;-77
2022/01/22 00:08:02;;;;;;;46.47;6.43;;;6.60;99.90;;;;;;5086361;28;21177;-76
2022/01/22 00:10:29;;;;;;;28.25;5.95;;;6.60;99.90;;;;;;5087656;28;20040;-77
2022/01/22 00:15:43;;;;;;;24.73;4.53;;;6.60;99.90;;;;;;5031814;28;20135;-76
2022/01/22 00:18:09;;;;;;;17.63;2.45;;;6.60;99.90;;;;;;5087558;28;20193;-77
2022/01/22 00:20:36;;;;;;;18.52;2.83;;;6.60;99.90;;;;;;5087439;28;20055;-77
2022/01/22 00:23:04;;;;;;;17.10;3.25;;;6.60;99.90;;;;;;5086232;28;20438;-77
2022/01/22 00:25:29;;;;;;;50.55;6.13;;;6.50;99.90;;;;;;5087509;28;20036;-78
2022/01/22 00:27:55;;;;;;;24.50;2.65;;;6.50;99.90;;;;;;5087077;28;20054;-77
2022/01/22 00:30:25;;;;;;;31.67;4.85;;;6.50;99.90;;;;;;5087303;28;20047;-79
2022/01/22 00:32:52;;;;;;;11.23;2.55;;;6.60;99.90;;;;;;5086934;28;20112;-79
2022/01/22 00:35:19;;;;;;;18.63;2.63;;;6.60;99.90;;;;;;5087682;28;20051;-79
2022/01/22 00:37:47;;;;;;;29.35;4.72;;;6.50;99.90;;;;;;5085956;28;20430;-77
2022/01/22 00:40:14;;;;;;;27.55;3.63;;;6.50;99.90;;;;;;5087189;28;20120;-77
2022/01/22 00:42:42;;;;;;;20.42;4.72;;;6.60;99.90;;;;;;5087503;28;20043;-77
2022/01/22 00:45:08;;;;;;;25.75;4.75;;;6.60;99.90;;;;;;5087352;28;20638;-78
2022/01/22 00:47:33;;;;;;;24.83;5.20;;;6.60;99.90;;;;;;5091053;28;20123;-78
2022/01/22 00:49:59;;;;;;;25.42;4.65;;;6.60;99.90;;;;;;5073181;28;20574;-78
2022/01/22 00:52:25;;;;;;;28.45;3.92;;;6.60;99.90;;;;;;5090363;28;20558;-78
2022/01/22 00:54:51;;;;;;;56.65;6.63;;;6.50;99.90;;;;;;5073089;28;20071;-77
2022/01/22 00:57:16;;;;;;;12.00;2.33;;;6.50;99.90;;;;;;5091174;28;20058;-78
2022/01/22 00:59:42;;;;;;;32.90;4.32;;;6.60;99.90;;;;;;5091583;28;20093;-77
2022/01/22 01:02:07;;;;;;;18.83;3.85;;;6.60;99.90;;;;;;5091387;28;20044;-78
2022/01/22 01:04:35;;;;;;;29.08;4.53;;;6.50;99.90;;;;;;5091443;28;20131;-78
2022/01/22 01:07:01;;;;;;;17.80;4.85;;;6.60;99.90;;;;;;5089816;28;20490;-78
2022/01/22 01:09:27;;;;;;;15.02;2.38;;;6.50;99.90;;;;;;5091095;28;20536;-78
2022/01/22 01:11:57;;;;;;;17.17;3.95;;;6.50;99.90;;;;;;5091036;28;20068;-77
2022/01/22 01:14:52;;;;;;;27.50;3.95;;;6.50;99.90;;;;;;5091112;28;20050;-77
2022/01/22 01:17:23;;;;;;;27.02;3.45;;;6.40;99.90;;;;;;5072722;28;20048;-78
2022/01/22 01:33:42;;;;;;;15.93;2.67;;;6.50;99.90;;;;;;5090656;28;20592;-77
2022/01/22 01:36:07;;;;;;;20.63;3.63;;;6.50;99.90;;;;;;5056042;28;20430;-76
2022/01/22 01:38:39;;;;;;;12.60;2.17;;;6.50;99.90;;;;;;5089365;28;20044;-77
2022/01/22 01:41:14;;;;;;;24.77;3.85;;;6.50;99.90;;;;;;5071833;28;20081;-77
2022/01/22 01:43:40;;;;;;;14.40;2.38;;;6.40;99.90;;;;;;5090396;28;20084;-76
2022/01/22 01:46:06;;;;;;;22.75;2.90;;;6.40;99.90;;;;;;5089796;28;20056;-77
2022/01/22 01:48:37;;;;;;;12.40;1.88;;;6.50;99.90;;;;;;5090403;28;20123;-76
2022/01/22 01:51:04;;;;;;;18.83;3.88;;;6.50;99.90;;;;;;5089986;28;20468;-78
2022/01/22 01:58:55;;;;;;;11.68;2.15;;;6.50;99.90;;;;;;5089673;28;20047;-77
2022/01/22 02:01:21;;;;;;;19.55;2.95;;;6.50;99.90;;;;;;5071975;28;20075;-76
2022/01/22 02:03:47;;;;;;;11.63;2.45;;;6.50;99.90;;;;;;5071656;28;20055;-76
2022/01/22 02:06:13;;;;;;;6.68;1.73;;;6.50;99.90;;;;;;5088948;28;20032;-75
2022/01/22 02:08:39;;;;;;;9.90;1.48;;;6.50;99.90;;;;;;5072185;28;20090;-78
2022/01/22 02:11:05;;;;;;;29.40;1.73;;;6.40;99.90;;;;;;5071322;28;20047;-77
2022/01/22 02:24:50;;;;;;;38.10;3.47;;;6.50;99.90;;;;;;5071242;28;20284;-77
2022/01/22 02:27:17;;;;;;;8.70;1.45;;;6.40;99.90;;;;;;5089955;28;20528;-77
2022/01/22 02:29:43;;;;;;;19.70;2.85;;;6.50;99.90;;;;;;5089384;28;20395;-75
2022/01/22 02:32:43;;;;;;;14.52;2.70;;;6.40;99.90;;;;;;5089550;28;20066;-76
2022/01/22 02:35:09;;;;;;;5.15;1.45;;;6.40;99.90;;;;;;5089105;28;20521;-76
2022/01/22 02:37:39;;;;;;;12.50;2.67;;;6.50;99.90;;;;;;5088536;28;20048;-76
2022/01/22 02:40:11;;;;;;;12.00;1.38;;;6.50;99.90;;;;;;5089502;28;20087;-77
2022/01/22 02:42:37;;;;;;;10.65;2.03;;;6.50;99.90;;;;;;5089724;28;20410;-77
2022/01/22 02:45:10;;;;;;;11.35;2.50;;;6.50;99.90;;;;;;5070934;28;20130;-77
2022/01/22 02:47:36;;;;;;;9.63;1.77;;;6.50;99.90;;;;;;5089169;28;20055;-76
2022/01/22 02:50:05;;;;;;;10.13;2.05;;;6.50;99.90;;;;;;5070515;28;20332;-76
2022/01/22 02:52:30;;;;;;;11.43;1.70;;;6.40;99.90;;;;;;5088030;28;20401;-78
2022/01/22 02:54:56;;;;;;;9.32;1.42;;;6.50;99.90;;;;;;5088749;28;20196;-77
2022/01/22 02:57:23;;;;;;;8.30;1.38;;;6.40;99.90;;;;;;5088935;28;20078;-77
2022/01/22 02:59:49;;;;;;;14.63;1.58;;;6.40;99.90;;;;;;5088624;28;20055;-77
2022/01/22 03:02:15;;;;;;;8.52;1.92;;;6.50;99.90;;;;;;5070624;28;20047;-76
2022/01/22 03:04:41;;;;;;;10.43;1.13;;;6.40;99.90;;;;;;5088988;28;20044;-77
2022/01/22 03:07:07;;;;;;;10.32;1.48;;;6.40;99.90;;;;;;5069333;28;20040;-77
2022/01/22 03:09:40;;;;;;;10.25;1.88;;;6.40;99.90;;;;;;5088088;28;20545;-76
2022/01/22 03:15:22;;;;;;;2.83;0.60;;;6.40;99.90;;;;;;5088621;28;20046;-77
2022/01/22 03:17:51;;;;;;;13.55;1.60;;;6.40;99.90;;;;;;5088035;28;20084;-77
2022/01/22 03:27:56;;;;;;;4.40;0.80;;;6.40;99.90;;;;;;5087885;28;20051;-77
2022/01/22 03:30:22;;;;;;;11.07;1.73;;;6.30;99.90;;;;;;5088402;28;20055;-76
2022/01/22 03:32:51;;;;;;;8.82;1.27;;;6.30;99.90;;;;;;5087737;28;20409;-77
2022/01/22 03:37:51;;;;;;;12.50;1.90;;;6.30;99.90;;;;;;5086626;28;20105;-75
2022/01/22 03:40:20;;;;;;;9.75;1.58;;;6.30;99.90;;;;;;5070018;28;20147;-77
2022/01/22 03:42:46;;;;;;;10.00;2.83;;;6.30;99.90;;;;;;5087670;28;20040;-75
2022/01/22 03:45:12;;;;;;;15.10;1.52;;;6.30;99.90;;;;;;5070048;28;20048;-77
2022/01/22 03:47:38;;;;;;;8.63;2.35;;;6.30;99.90;;;;;;5088065;28;20040;-75
2022/01/22 03:50:05;;;;;;;6.43;1.55;;;6.40;99.90;;;;;;5087654;28;20109;-77
2022/01/22 03:52:31;;;;;;;12.98;1.75;;;6.30;99.90;;;;;;5086991;28;20048;-77
2022/01/22 03:54:57;;;;;;;7.97;1.13;;;6.30;99.90;;;;;;5087510;28;20093;-77
2022/01/22 03:57:23;;;;;;;8.07;1.90;;;6.30;99.90;;;;;;5087819;28;20048;-78
2022/01/22 03:59:52;;;;;;;8.90;0.98;;;6.30;99.90;;;;;;5087517;28;20059;-77
2022/01/22 04:05:03;;;;;;;4.22;0.50;;;6.30;99.90;;;;;;5088080;28;20044;-77
2022/01/22 04:08:06;;;;;;;8.55;1.25;;;6.30;99.90;;;;;;5087970;28;20043;-77
2022/01/22 04:10:25;;;;;;;12.77;2.25;;;6.40;99.90;;;;;;5087302;28;20449;-77
2022/01/22 04:13:05;;;;;;;5.05;1.15;;;6.30;99.90;;;;;;5087353;28;20040;-77
2022/01/22 04:15:33;;;;;;;10.30;2.33;;;6.40;99.90;;;;;;5087951;28;20036;-76
2022/01/22 04:26:28;;;;;;;6.40;1.30;;;6.30;99.90;;;;;;5087452;28;20052;-78
2022/01/22 04:28:54;;;;;;;10.48;3.35;;;6.40;99.90;;;;;;5069271;28;20334;-77
2022/01/22 04:31:19;;;;;;;7.15;1.60;;;6.30;99.90;;;;;;5087396;28;20056;-77
2022/01/22 04:33:45;;;;;;;11.13;3.45;;;6.30;99.90;;;;;;5087104;28;20040;-77
2022/01/22 04:36:11;;;;;;;10.90;1.88;;;6.40;99.90;;;;;;5086596;28;20040;-77
2022/01/22 04:38:38;;;;;;;12.02;1.60;;;6.40;99.90;;;;;;5087078;28;20079;-76
2022/01/22 04:41:05;;;;;;;5.65;1.98;;;6.40;99.90;;;;;;5086994;28;20383;-76
2022/01/22 04:43:33;;;;;;;8.55;2.33;;;6.40;99.90;;;;;;5087356;28;20040;-76
2022/01/22 04:46:12;;;;;;;7.63;1.60;;;6.30;99.90;;;;;;5086829;28;20048;-77
2022/01/22 04:48:50;;;;;;;12.95;2.47;;;6.30;99.90;;;;;;5087344;28;20044;-76
2022/01/22 04:56:46;;;;;;;7.68;1.33;;;6.30;99.90;;;;;;5086768;28;20048;-77
2022/01/22 04:59:12;;;;;;;10.57;1.48;;;6.30;99.90;;;;;;5087290;28;20047;-76
2022/01/22 05:01:38;;;;;;;16.13;3.17;;;6.30;99.90;;;;;;5087488;28;20043;-77
2022/01/22 05:04:04;;;;;;;7.97;1.85;;;6.30;99.90;;;;;;5052426;28;20052;-77
2022/01/22 05:06:30;;;;;;;14.82;2.78;;;6.30;99.90;;;;;;5086070;28;20036;-77
2022/01/22 05:08:56;;;;;;;6.20;1.58;;;6.30;99.90;;;;;;5086604;28;20493;-76
2022/01/22 05:11:24;;;;;;;10.95;2.63;;;6.30;99.90;;;;;;5086976;28;20036;-77
2022/01/22 05:13:51;;;;;;;7.47;1.35;;;6.30;99.90;;;;;;5086770;28;20071;-77
2022/01/22 05:16:17;;;;;;;13.43;2.05;;;6.30;99.90;;;;;;5086826;28;20045;-77
2022/01/22 05:18:58;;;;;;;18.05;3.10;;;6.30;99.90;;;;;;5087064;28;20067;-74
2022/01/22 05:21:25;;;;;;;9.93;2.85;;;6.30;99.90;;;;;;5067855;28;20044;-77
2022/01/22 05:23:52;;;;;;;11.45;2.08;;;6.40;99.90;;;;;;5086568;28;20052;-77
2022/01/22 05:37:02;;;;;;;6.97;1.40;;;6.40;99.90;;;;;;5089547;28;20127;-75
2022/01/22 05:39:30;;;;;;;9.20;2.08;;;6.40;99.90;;;;;;5090242;28;20051;-76
2022/01/22 05:41:57;;;;;;;9.73;2.10;;;6.30;99.90;;;;;;5090105;28;20040;-77
2022/01/22 05:44:23;;;;;;;5.50;1.90;;;6.30;99.90;;;;;;5090409;28;20044;-78
2022/01/22 05:46:51;;;;;;;5.45;1.58;;;6.40;99.90;;;;;;5089733;28;20438;-77
2022/01/22 05:49:18;;;;;;;7.00;1.45;;;6.40;99.90;;;;;;5090098;28;20040;-76
2022/01/22 05:51:47;;;;;;;4.47;1.23;;;6.30;99.90;;;;;;5089291;28;20048;-77
2022/01/22 05:59:41;;;;;;;20.60;2.25;;;6.30;99.90;;;;;;5090129;28;20466;-78
2022/01/22 06:02:12;;;;;;;12.73;1.38;;;6.30;99.90;;;;;;5089456;28;20043;-77
2022/01/22 06:04:40;;;;;;;8.50;1.98;;;6.30;99.90;;;;;;5090313;28;20123;-78
2022/01/22 06:07:07;;;;;;;6.93;1.58;;;6.30;99.90;;;;;;5088744;28;20048;-77
2022/01/22 06:09:34;;;;;;;7.00;1.38;;;6.40;99.90;;;;;;5072355;28;20671;-77
2022/01/22 06:14:32;;;;;;;13.00;2.40;;;6.40;99.90;;;;;;5089948;28;20055;-78
2022/01/22 06:16:58;;;;;;;3.70;1.25;;;6.30;99.90;;;;;;5089522;28;20036;-78
2022/01/22 06:19:23;;;;;;;12.95;2.58;;;6.40;99.90;;;;;;5071199;28;20043;-77
2022/01/22 06:21:52;;;;;;;8.48;1.83;;;6.30;99.90;;;;;;5088371;28;20047;-77
2022/01/22 06:24:18;;;;;;;4.95;0.98;;;6.30;99.90;;;;;;5089533;28;20040;-75
2022/01/22 06:26:44;;;;;;;4.68;1.48;;;6.20;99.90;;;;;;5089175;28;20045;-77
2022/01/22 06:29:10;;;;;;;5.95;1.42;;;6.30;99.90;;;;;;5089545;28;20055;-76
2022/01/22 06:31:36;;;;;;;6.50;0.75;;;6.30;99.90;;;;;;5089171;28;20040;-75
2022/01/22 06:34:02;;;;;;;4.93;1.60;;;6.20;99.90;;;;;;5089096;28;20549;-76
2022/01/22 06:36:28;;;;;;;8.30;2.88;;;6.20;99.90;;;;;;5088420;28;20055;-77
2022/01/22 06:39:09;;;;;;;2.83;0.85;;;6.20;99.90;;;;;;5070590;28;20132;-76
2022/01/22 06:41:44;;;;;;;6.30;1.73;;;6.10;99.90;;;;;;5071160;28;20063;-76
2022/01/22 06:44:19;;;;;;;10.27;1.70;;;6.10;99.90;;;;;;5070359;28;20040;-77
2022/01/22 06:46:47;;;;;;;5.65;1.08;;;6.20;99.90;;;;;;5070247;28;20048;-76
2022/01/22 06:49:13;;;;;;;8.75;1.60;;;6.10;99.90;;;;;;5088930;28;20051;-73
2022/01/22 06:51:39;;;;;;;9.68;1.45;;;6.10;99.90;;;;;;5088250;28;20127;-76
2022/01/22 06:54:07;;;;;;;9.43;1.95;;;6.20;99.90;;;;;;5088341;28;20032;-76
2022/01/22 06:56:33;;;;;;;12.05;1.90;;;6.10;99.90;;;;;;5088782;28;20040;-76
2022/01/22 06:58:59;;;;;;;6.50;0.82;;;6.10;99.90;;;;;;5088373;28;20116;-76
2022/01/22 07:01:26;;;;;;;10.82;1.27;;;6.10;99.90;;;;;;5070565;28;20044;-76
2022/01/22 07:03:53;;;;;;;15.20;1.85;;;6.10;99.90;;;;;;5088415;28;20039;-77
2022/01/22 07:06:19;;;;;;;8.88;2.55;;;6.10;99.90;;;;;;5069443;28;20071;-76
2022/01/22 07:08:45;;;;;;;28.80;1.67;;;6.10;99.90;;;;;;5088171;28;20071;-77
2022/01/22 07:11:10;;;;;;;7.60;1.70;;;6.00;99.90;;;;;;5070501;28;20520;-74
2022/01/22 07:13:37;;;;;;;8.10;1.50;;;6.00;99.90;;;;;;5070718;28;20043;-75
2022/01/22 07:16:03;;;;;;;5.43;1.10;;;6.00;99.90;;;;;;5088371;28;20079;-76
2022/01/22 07:18:30;;;;;;;11.45;1.63;;;6.00;99.90;;;;;;5088167;28;20425;-76
2022/01/22 07:20:56;;;;;;;3.47;1.38;;;6.00;99.90;;;;;;5087219;28;20489;-77
2022/01/22 07:23:56;;;;;;;6.50;0.80;;;6.00;99.90;;;;;;5087845;28;20444;-76
2022/01/22 07:26:17;;;;;;;10.07;1.63;;;6.10;99.90;;;;;;5070453;28;20074;-76
2022/01/22 07:28:43;;;;;;;6.35;1.20;;;6.00;99.90;;;;;;5088102;28;20502;-74
2022/01/22 07:31:09;;;;;;;10.60;2.22;;;6.00;99.90;;;;;;5088378;28;20044;-76
2022/01/22 07:33:35;;;;;;;5.88;0.70;;;6.00;99.90;;;;;;5088288;28;20040;-76
2022/01/22 07:36:03;;;;;;;9.07;1.52;;;6.00;99.90;;;;;;5087272;28;20040;-76
2022/01/22 07:38:28;;;;;;;5.43;1.00;;;6.00;99.90;;;;;;5069861;28;20044;-76
2022/01/22 07:40:54;;;;;;;9.40;1.83;;;6.00;99.90;;;;;;5069890;28;20518;-76
2022/01/22 07:43:20;;;;;;;4.97;0.90;;;6.10;99.90;;;;;;5087940;28;20066;-77
2022/01/22 07:45:46;;;;;;;9.48;1.90;;;6.00;99.90;;;;;;5087607;28;20048;-75
2022/01/22 07:48:11;;;;;;;16.85;6.75;;;6.10;99.90;;;;;;5069859;28;20100;-76
2022/01/22 07:50:37;;;;;;;14.80;5.88;;;6.10;99.90;;;;;;5068816;28;20040;-76
2022/01/22 07:53:03;;;;;;;5.32;1.33;;;6.10;99.90;;;;;;5087315;28;20051;-76
2022/01/22 07:55:29;;;;;;;7.78;1.60;;;6.00;99.90;;;;;;5087751;28;20454;-76
2022/01/22 07:57:55;;;;;;;11.50;1.08;;;6.10;99.90;;;;;;5086939;28;20110;-78
2022/01/22 08:00:21;;;;;;;13.38;2.45;;;6.10;99.90;;;;;;5087812;28;20040;-76
2022/01/22 08:02:48;;;;;;;20.05;2.20;;;6.10;99.90;;;;;;5086905;28;20085;-76
2022/01/22 08:05:14;;;;;;;21.92;3.28;;;6.10;99.90;;;;;;5086681;28;20107;-77
2022/01/22 08:07:43;;;;;;;9.82;1.95;;;6.10;99.90;;;;;;5087541;28;20486;-77
2022/01/22 08:10:10;;;;;;;19.42;3.22;;;6.10;99.90;;;;;;5069306;28;20324;-76
2022/01/22 08:12:37;;;;;;;17.52;2.60;;;6.20;99.90;;;;;;5068890;28;20111;-75
2022/01/22 08:15:07;;;;;;;9.13;1.80;;;6.10;99.90;;;;;;5068706;28;20486;-76
2022/01/22 08:17:33;;;;;;;8.38;2.55;;;6.10;99.90;;;;;;5068749;28;20052;-78
2022/01/22 08:19:59;;;;;;;13.85;3.08;;;6.10;99.90;;;;;;5068856;28;20044;-78
2022/01/22 08:22:25;;;;;;;16.40;3.38;;;6.10;99.90;;;;;;5086256;28;20405;-78
2022/01/22 08:24:53;;;;;;;18.50;2.95;;;6.10;99.90;;;;;;5069033;28;20489;-76
2022/01/22 08:29:54;;;;;;;8.20;2.03;;;6.10;99.90;;;;;;5086809;28;20072;-78
2022/01/22 08:33:20;;;;;;;15.82;2.90;;;6.10;99.90;;;;;;5087224;28;20098;-77
2022/01/22 08:37:54;;;;;;;16.45;2.53;;;6.20;99.90;;;;;;5086668;28;20041;-77
2022/01/22 08:40:19;;;;;;;9.80;2.00;;;6.20;99.90;;;;;;5069305;28;20117;-77
2022/01/22 08:42:45;;;;;;;12.60;2.55;;;6.20;99.90;;;;;;5068945;28;20486;-77
2022/01/22 08:45:11;;;;;;;6.47;1.50;;;6.20;99.90;;;;;;5069049;28;20055;-76
2022/01/22 08:47:38;;;;;;;13.38;2.15;;;6.20;99.90;;;;;;5086975;28;20198;-76
2022/01/22 08:50:04;;;;;;;13.10;2.75;;;6.20;99.90;;;;;;5086072;28;20131;-76
2022/01/22 08:52:34;;;;;;;11.82;2.10;;;6.20;99.90;;;;;;5087299;28;20044;-77
2022/01/22 08:54:59;;;;;;;22.25;3.53;;;6.20;99.90;;;;;;5086368;28;20036;-76
2022/01/22 08:57:25;;;;;;;10.32;1.92;;;6.20;99.90;;;;;;5068776;28;20054;-76
2022/01/22 08:59:51;;;;;;;11.60;1.85;;;6.30;99.90;;;;;;5087222;28;20040;-77
2022/01/22 09:02:17;;;;;;;14.70;3.03;;;6.30;99.90;;;;;;5087462;28;20127;-77
2022/01/22 09:04:43;;;;;;;17.85;3.17;;;6.30;99.90;;;;;;5087349;28;20040;-74
2022/01/22 09:07:08;;;;;;;20.92;5.38;;;6.30;99.90;;;;;;5087749;28;20120;-76
2022/01/22 09:09:37;;;;;;;16.13;4.45;;;6.30;99.90;;;;;;5090453;28;20054;-81
2022/01/22 09:12:06;;;;;;;20.42;7.65;;;6.40;99.90;;;;;;5072328;28;20504;-77
2022/01/22 09:14:32;;;;;;;20.10;7.13;;;6.30;99.90;;;;;;5090568;28;20051;-77
2022/01/22 09:16:59;;;;;;;23.90;9.23;;;6.40;99.90;;;;;;5090399;28;20035;-77
2022/01/22 09:19:32;;;;;;;33.63;10.02;;;6.40;99.90;;;;;;5090304;28;20109;-78
2022/01/22 09:21:58;;;;;;;21.80;7.80;;;6.40;99.90;;;;;;5071264;28;20471;-76
2022/01/22 09:24:23;;;;;;;22.98;6.72;;;6.50;99.90;;;;;;5072169;28;20131;-77
2022/01/22 09:26:50;;;;;;;17.55;4.88;;;6.40;99.90;;;;;;5090110;28;20043;-76
2022/01/22 09:29:16;;;;;;;22.05;3.72;;;6.50;99.90;;;;;;5090187;28;20490;-76
2022/01/22 09:31:42;;;;;;;23.48;3.78;;;6.50;99.90;;;;;;5090603;28;20046;-78
2022/01/22 09:34:09;;;;;;;19.30;3.03;;;6.50;99.90;;;;;;5072341;28;20109;-76
2022/01/22 09:36:35;;;;;;;9.90;3.63;;;6.50;99.90;;;;;;5089150;28;20044;-77
2022/01/22 09:39:04;;;;;;;19.77;4.03;;;6.50;99.90;;;;;;5090417;28;20044;-78
2022/01/22 09:41:30;;;;;;;16.98;3.10;;;6.50;99.90;;;;;;5090314;28;20036;-76
2022/01/22 09:43:57;;;;;;;14.15;2.53;;;6.60;99.90;;;;;;5071748;28;20044;-77
2022/01/22 09:46:25;;;;;;;11.63;2.38;;;6.60;99.90;;;;;;5089958;28;20134;-78
2022/01/22 09:48:52;;;;;;;19.85;3.22;;;6.60;99.90;;;;;;5071178;28;20123;-76
2022/01/22 09:51:18;;;;;;;8.70;2.75;;;6.60;99.90;;;;;;5088938;28;20040;-78
2022/01/22 09:53:44;;;;;;;12.68;3.45;;;6.60;99.90;;;;;;5089821;28;20127;-79
2022/01/22 09:56:11;;;;;;;11.15;1.98;;;6.70;99.90;;;;;;5072063;28;20047;-76
2022/01/22 09:58:37;;;;;;;10.23;2.35;;;6.70;99.90;;;;;;5071581;28;20083;-75
2022/01/22 10:01:27;;;;;;;14.30;2.88;;;6.70;99.90;;;;;;5071373;28;20073;-75
2022/01/22 10:03:55;;;;;;;15.82;2.97;;;6.70;99.90;;;;;;5089585;28;20121;-76
2022/01/22 10:06:24;;;;;;;5.47;1.40;;;6.80;99.90;;;;;;5089278;28;20115;-79
2022/01/22 10:08:54;;;;;;;10.23;1.73;;;6.70;99.90;;;;;;5071825;28;20229;-78
2022/01/22 10:11:23;;;;;;;11.05;2.38;;;6.80;99.90;;;;;;5072022;28;20103;-76
2022/01/22 10:13:52;;;;;;;9.60;1.73;;;6.80;99.90;;;;;;5090091;28;20105;-78
2022/01/22 10:16:26;;;;;;;7.05;1.20;;;6.80;99.90;;;;;;5071762;28;20085;-76
2022/01/22 10:19:21;;;;;;;10.00;2.35;;;6.90;99.90;;;;;;5089178;28;20048;-77
2022/01/22 10:21:58;;;;;;;14.38;1.95;;;6.90;99.90;;;;;;5069832;28;20082;-75
2022/01/22 10:24:47;;;;;;;9.75;2.13;;;6.90;99.90;;;;;;5071523;28;20098;-76
2022/01/22 10:30:03;;;;;;;12.98;1.83;;;7.00;99.90;;;;;;5088802;28;20036;-77
2022/01/22 10:32:58;;;;;;;20.10;3.63;;;6.90;99.90;;;;;;5088886;28;20494;-77
2022/01/22 10:35:18;;;;;;;10.00;2.22;;;6.90;99.90;;;;;;5086435;28;20559;-76
2022/01/22 10:37:45;;;;;;;15.32;2.78;;;6.90;99.90;;;;;;5088598;28;20039;-77
2022/01/22 10:40:21;;;;;;;11.32;2.85;;;6.90;99.90;;;;;;5089433;28;20437;-77
2022/01/22 10:42:47;;;;;;;8.05;2.33;;;6.90;99.90;;;;;;5088569;28;20489;-76
2022/01/22 10:45:22;;;;;;;14.70;2.65;;;6.90;99.90;;;;;;5088472;28;20036;-76
2022/01/22 10:47:47;;;;;;;29.23;4.20;;;6.90;99.90;;;;;;5088277;28;20501;-75
2022/01/22 10:50:23;;;;;;;9.20;1.85;;;6.90;99.90;;;;;;5088104;28;20032;-75
2022/01/22 10:52:51;;;;;;;13.77;3.03;;;6.90;99.90;;;;;;5070356;28;20055;-76
2022/01/22 10:55:18;;;;;;;11.93;2.30;;;6.90;99.90;;;;;;5088659;28;20340;-76
2022/01/22 10:58:07;;;;;;;20.15;3.13;;;6.90;99.90;;;;;;5088511;28;20036;-76
2022/01/22 11:00:34;;;;;;;13.38;4.35;;;7.00;99.90;;;;;;5070227;28;20136;-75
2022/01/22 11:03:21;;;;;;;23.30;5.22;;;7.00;99.90;;;;;;5088029;28;20082;-77
2022/01/22 11:05:47;;;;;;;10.93;2.80;;;7.00;99.90;;;;;;5069260;28;20044;-78
2022/01/22 11:08:13;;;;;;;11.13;2.90;;;7.00;99.90;;;;;;5070355;28;20054;-73
2022/01/22 11:10:40;;;;;;;15.48;5.22;;;6.90;99.90;;;;;;5088676;28;20086;-78
2022/01/22 11:13:06;;;;;;;25.38;3.80;;;6.90;99.90;;;;;;5069736;28;20036;-76
2022/01/22 11:15:33;;;;;;;23.15;4.43;;;6.90;99.90;;;;;;5088381;28;20044;-76
2022/01/22 11:18:00;;;;;;;14.93;2.97;;;7.00;99.90;;;;;;5088009;28;20044;-75
2022/01/22 11:20:26;;;;;;;16.67;3.53;;;6.90;99.90;;;;;;5069387;28;20067;-77
2022/01/22 11:22:53;;;;;;;14.38;3.25;;;6.90;99.90;;;;;;5069629;28;20050;-76
2022/01/22 11:25:20;;;;;;;27.70;6.30;;;6.90;99.90;;;;;;5069794;28;20083;-77
2022/01/22 11:27:47;;;;;;;16.10;4.90;;;6.90;99.90;;;;;;5087660;28;20467;-77
2022/01/22 11:30:16;;;;;;;23.90;4.07;;;6.90;99.90;;;;;;5087828;28;20040;-73
2022/01/22 11:32:48;;;;;;;16.88;2.63;;;7.00;99.90;;;;;;5087969;28;20426;-76
2022/01/22 11:35:20;;;;;;;15.18;3.78;;;7.00;99.90;;;;;;5069078;28;20406;-76
2022/01/22 11:37:51;;;;;;;10.00;2.88;;;7.00;99.90;;;;;;5088797;28;20494;-77
2022/01/22 11:40:22;;;;;;;22.92;5.53;;;6.90;99.90;;;;;;5089153;28;20040;-79
2022/01/22 11:43:06;;;;;;;17.52;3.08;;;6.90;99.90;;;;;;5087622;28;20059;-76
2022/01/22 11:45:46;;;;;;;12.80;2.53;;;7.00;99.90;;;;;;5087555;28;20056;-76
2022/01/22 11:48:25;;;;;;;15.57;3.05;;;7.00;99.90;;;;;;5087549;28;20048;-78
2022/01/22 11:51:16;;;;;;;13.85;1.92;;;7.00;99.90;;;;;;5087250;28;20127;-78
2022/01/22 11:53:54;;;;;;;8.48;2.40;;;7.00;99.90;;;;;;5088145;28;20048;-78
2022/01/22 11:56:27;;;;;;;12.80;1.60;;;7.00;99.90;;;;;;5087669;28;20048;-77
2022/01/22 11:58:59;;;;;;;13.07;2.92;;;7.00;99.90;;;;;;5087470;28;20052;-78
2022/01/22 12:01:45;;;;;;;8.70;1.65;;;7.00;99.90;;;;;;5087445;28;20040;-78
2022/01/22 12:04:16;;;;;;;16.58;4.28;;;7.10;99.90;;;;;;5087824;28;20101;-77
2022/01/22 12:07:00;;;;;;;7.38;1.35;;;7.00;99.90;;;;;;5051763;28;20073;-76
2022/01/22 12:09:33;;;;;;;7.85;2.33;;;7.00;99.90;;;;;;5087568;28;20051;-78
2022/01/22 12:15:47;;;;;;;3.72;1.10;;;7.10;99.90;;;;;;5087280;28;20052;-78
2022/01/22 12:18:16;;;;;;;12.80;2.20;;;7.00;99.90;;;;;;5087154;28;20040;-75
2022/01/22 12:23:29;;;;;;;5.80;1.27;;;7.10;99.90;;;;;;5087039;28;20175;-77
2022/01/22 12:25:55;;;;;;;9.60;2.33;;;7.00;99.90;;;;;;5087153;28;20047;-78
2022/01/22 12:28:41;;;;;;;10.65;1.92;;;7.10;99.90;;;;;;5069163;28;20219;-77
2022/01/22 12:31:19;;;;;;;16.35;3.67;;;7.00;99.90;;;;;;5068868;28;20040;-78
2022/01/22 12:33:46;;;;;;;10.40;1.70;;;7.00;99.90;;;;;;5086761;28;20126;-77
2022/01/22 12:36:18;;;;;;;17.45;3.00;;;7.00;99.90;;;;;;5068636;28;20040;-78
2022/01/22 12:38:57;;;;;;;8.50;1.52;;;7.10;99.90;;;;;;5086880;28;20040;-78
2022/01/22 12:44:12;;;;;;;6.75;2.60;;;7.20;99.90;;;;;;5091027;28;20058;-78
2022/01/22 12:46:38;;;;;;;9.40;2.00;;;7.10;99.90;;;;;;5091092;28;20052;-77
2022/01/22 12:49:05;;;;;;;7.57;1.83;;;7.10;99.90;;;;;;5091101;28;20406;-77
2022/01/22 12:51:32;;;;;;;11.50;2.92;;;7.10;99.90;;;;;;5090367;28;20523;-79
2022/01/22 12:53:57;;;;;;;6.75;1.02;;;7.10;99.90;;;;;;5090839;28;20067;-75
2022/01/22 12:59:09;;;;;;;10.38;1.50;;;7.10;99.90;;;;;;5072407;28;20055;-75
2022/01/22 13:01:37;;;;;;;11.65;2.35;;;7.10;99.90;;;;;;5090793;28;20422;-77
2022/01/22 13:04:06;;;;;;;8.02;1.95;;;7.10;99.90;;;;;;5090622;28;20040;-75
2022/01/22 13:06:45;;;;;;;13.13;2.27;;;7.00;99.90;;;;;;5071927;28;20044;-75
2022/01/22 13:09:12;;;;;;;9.82;2.65;;;7.00;99.90;;;;;;5090793;28;20099;-75
2022/01/22 13:11:46;;;;;;;8.90;2.92;;;7.00;99.90;;;;;;5072442;28;20050;-76
2022/01/22 13:14:14;;;;;;;7.95;2.08;;;6.90;99.90;;;;;;5072588;28;20548;-75
2022/01/22 13:16:51;;;;;;;16.58;2.97;;;6.90;99.90;;;;;;5072866;28;20040;-74
2022/01/22 13:19:18;;;;;;;14.38;2.47;;;6.90;99.90;;;;;;5089588;28;20101;-75
2022/01/22 13:21:58;;;;;;;24.08;10.65;;;6.90;99.90;;;;;;5089892;28;20048;-75
2022/01/22 13:24:27;;;;;;;39.88;10.43;;;6.80;99.90;;;;;;5072862;28;20346;-76
2022/01/22 13:27:03;;;;;;;9.98;4.15;;;6.90;99.90;;;;;;5072000;28;20340;-78
2022/01/22 13:29:39;;;;;;;7.90;2.78;;;6.90;99.90;;;;;;5072246;28;20050;-77
2022/01/22 13:49:09;;;;;;;6.53;1.90;;;7.00;99.90;;;;;;5071468;28;20078;-71
2022/01/22 13:51:37;;;;;;;8.90;1.20;;;7.00;99.90;;;;;;5089657;28;20098;-75
2022/01/22 13:54:03;;;;;;;13.05;2.08;;;7.00;99.90;;;;;;5089220;28;20037;-78
2022/01/22 13:56:44;;;;;;;7.07;1.48;;;6.90;99.90;;;;;;5071790;28;20051;-76
2022/01/22 13:59:27;;;;;;;8.68;1.13;;;6.90;99.90;;;;;;5071530;28;20144;-75
2022/01/22 14:02:14;;;;;;;10.63;1.48;;;6.90;99.90;;;;;;5089182;28;20482;-75
2022/01/22 14:04:41;;;;;;;4.32;0.88;;;6.80;99.90;;;;;;5089058;28;20032;-77
2022/01/22 14:07:31;;;;;;;6.18;1.05;;;6.90;99.90;;;;;;5089261;28;20089;-78
2022/01/22 14:10:00;;;;;;;10.85;2.60;;;6.80;99.90;;;;;;5071480;28;20106;-78
2022/01/22 14:12:32;;;;;;;26.10;2.20;;;6.90;99.90;;;;;;5071356;28;20277;-76
2022/01/22 14:15:01;;;;;;;5.43;1.25;;;6.90;99.90;;;;;;5071252;28;20048;-76
2022/01/22 14:17:32;;;;;;;11.55;1.90;;;6.80;99.90;;;;;;5089539;28;20047;-76
2022/01/22 14:19:59;;;;;;;4.78;0.90;;;6.80;99.90;;;;;;5088132;28;20046;-75
2022/01/22 14:22:25;;;;;;;6.90;1.05;;;6.80;99.90;;;;;;5071261;28;20044;-76
2022/01/22 14:25:07;;;;;;;7.70;1.75;;;6.90;99.90;;;;;;5089115;28;20314;-78
2022/01/22 14:27:33;;;;;;;5.90;1.10;;;6.80;99.90;;;;;;5070925;28;20043;-75
2022/01/22 14:29:58;;;;;;;10.80;2.20;;;6.80;99.90;;;;;;5071015;28;20071;-75
2022/01/22 14:32:24;;;;;;;8.50;1.63;;;6.90;99.90;;;;;;5088978;28;20036;-76
2022/01/22 14:34:49;;;;;;;9.07;1.50;;;6.90;99.90;;;;;;5087915;28;20122;-78
2022/01/22 14:37:31;;;;;;;10.70;2.38;;;6.80;99.90;;;;;;5089174;28;20480;-78
2022/01/22 14:45:25;;;;;;;9.23;1.75;;;6.70;99.90;;;;;;5070411;28;20059;-76
2022/01/22 14:47:57;;;;;;;3.72;1.10;;;6.70;99.90;;;;;;5088372;28;20054;-75
2022/01/22 14:50:24;;;;;;;7.75;2.78;;;6.70;99.90;;;;;;5087914;28;20036;-77
2022/01/22 14:52:58;;;;;;;7.72;1.90;;;6.70;99.90;;;;;;5088450;28;20048;-78
2022/01/22 14:55:25;;;;;;;5.88;1.48;;;6.60;99.90;;;;;;5088602;28;20247;-75
2022/01/22 14:57:52;;;;;;;8.82;1.92;;;6.50;99.90;;;;;;5088154;28;20127;-76
2022/01/22 15:00:18;;;;;;;4.97;1.63;;;6.50;99.90;;;;;;5088571;28;20048;-76
2022/01/22 15:02:46;;;;;;;4.50;0.50;;;6.40;99.90;;;;;;5088160;28;20044;-76
2022/01/22 15:05:13;;;;;;;32.15;2.25;;;6.40;99.90;;;;;;5086947;28;20119;-77